Time;durP1;ratioP1;P1;durP2;ratioP2;P2;SDS_P1;SDS_P2;PMS_P1;PMS_P2;Temp;Humidity;BMP_temperature;BMP_pressure;BME280_temperature;BME280_humidity;BME280_pressure;Samples;Min_cycle;Max_cycle;Signal;HPM_P1;HPM_P2
2022/10/14 00:01:25;;;;;;;;;15.67;15.67;;;;;16.27;100.00;100731.34;4849365;29;45343;-85
2022/10/14 00:03:53;;;;;;;;;15.67;15.67;;;;;16.28;100.00;100728.66;4853191;29;45578;-85
2022/10/14 00:06:24;;;;;;;;;8.00;8.00;;;;;16.31;100.00;100738.47;4838921;29;45590;-85
2022/10/14 00:08:50;;;;;;;;;16.00;14.67;;;;;16.28;100.00;100730.41;4836062;29;45630;-84
2022/10/14 00:11:22;;;;;;;;;13.00;13.00;;;;;16.31;100.00;100735.78;4837374;29;45105;-85
2022/10/14 00:13:48;;;;;;;;;17.33;15.67;;;;;16.35;100.00;100734.84;4849392;29;45213;-84
2022/10/14 00:16:18;;;;;;;;;17.33;15.33;;;;;16.37;100.00;100727.66;4836086;29;46429;-85
2022/10/14 00:18:44;;;;;;;;;13.00;12.67;;;;;16.32;100.00;100727.72;4835596;29;45793;-85
2022/10/14 00:21:09;;;;;;;;;15.00;12.67;;;;;16.34;100.00;100725.00;4834599;29;45403;-84
2022/10/14 00:23:35;;;;;;;;;17.33;15.33;;;;;16.27;100.00;100715.25;4850108;29;45800;-85
2022/10/14 00:26:00;;;;;;;;;13.33;13.33;;;;;16.32;100.00;100718.75;4835027;29;47130;-85
2022/10/14 00:28:25;;;;;;;;;14.00;12.00;;;;;16.27;100.00;100709.88;4846093;29;45494;-85
2022/10/14 00:30:56;;;;;;;;;12.00;11.33;;;;;16.33;100.00;100713.38;4835878;29;45391;-85
2022/10/14 00:33:22;;;;;;;;;9.33;8.00;;;;;16.33;100.00;100712.50;4834157;29;45473;-85
2022/10/14 00:35:56;;;;;;;;;11.00;11.00;;;;;16.30;100.00;100704.47;4834650;29;47352;-85
2022/10/14 00:38:22;;;;;;;;;10.33;10.33;;;;;16.32;100.00;100700.88;4820116;29;44815;-83
2022/10/14 00:40:47;;;;;;;;;9.67;9.00;;;;;16.32;100.00;100702.66;4834486;29;45416;-85
2022/10/14 00:43:13;;;;;;;;;9.00;7.33;;;;;16.19;100.00;100686.66;4849056;29;45711;-84
2022/10/14 00:45:39;;;;;;;;;8.33;8.00;;;;;16.25;100.00;100693.78;4839270;29;47126;-85
2022/10/14 00:48:05;;;;;;;;;10.33;10.33;;;;;16.33;100.00;100696.38;4839792;29;45206;-85
2022/10/14 00:50:32;;;;;;;;;9.33;9.33;;;;;16.36;100.00;100696.34;4848771;29;44935;-84
2022/10/14 00:52:58;;;;;;;;;8.00;8.00;;;;;16.34;100.00;100690.09;4840489;29;45576;-85
2022/10/14 00:55:25;;;;;;;;;13.33;9.67;;;;;16.33;100.00;100682.97;4849953;29;47322;-85
2022/10/14 00:57:51;;;;;;;;;11.33;11.33;;;;;16.34;100.00;100687.41;4839460;29;45244;-85
2022/10/14 01:00:19;;;;;;;;;8.33;8.33;;;;;16.40;100.00;100692.72;4853046;29;44781;-85
2022/10/14 01:02:45;;;;;;;;;7.33;7.33;;;;;16.38;100.00;100692.75;4839466;29;45378;-86
2022/10/14 01:05:13;;;;;;;;;7.33;7.33;;;;;16.39;100.00;100689.16;4840928;29;45860;-86
2022/10/14 01:08:01;;;;;;;;;5.00;5.00;;;;;16.41;100.00;100691.81;4840865;29;45424;-86
2022/10/14 01:10:49;;;;;;;;;5.33;4.33;;;;;16.45;100.00;100688.19;4852826;29;45612;-85
2022/10/14 01:13:30;;;;;;;;;5.67;4.00;;;;;16.45;100.00;100674.78;4849527;29;44867;-85
2022/10/14 01:16:18;;;;;;;;;11.00;6.33;;;;;16.46;100.00;100668.53;4840464;29;46214;-85
2022/10/14 01:19:21;;;;;;;;;6.00;6.00;;;;;16.49;100.00;100664.91;4822394;29;45444;-86
2022/10/14 01:22:16;;;;;;;;;5.67;5.67;;;;;16.54;100.00;100666.63;4822288;29;45719;-86
2022/10/14 01:24:56;;;;;;;;;6.00;6.00;;;;;16.59;100.00;100669.25;4799033;29;45381;-85
2022/10/14 01:27:53;;;;;;;;;4.00;4.00;;;;;16.63;100.00;100654.00;4822309;29;46670;-85
2022/10/14 01:30:24;;;;;;;;;4.00;4.00;;;;;16.67;100.00;100653.94;4806197;29;45347;-85
2022/10/14 01:33:12;;;;;;;;;4.50;3.50;;;;;16.68;100.00;100655.69;4806364;29;45406;-84
2022/10/14 01:35:47;;;;;;;;;4.25;4.25;;;;;16.72;100.00;100657.44;4806757;29;45638;-84
2022/10/14 01:38:19;;;;;;;;;2.75;2.75;;;;;16.72;100.00;100659.25;4822724;29;45431;-84
2022/10/14 01:41:02;;;;;;;;;3.00;3.00;;;;;16.72;100.00;100660.13;4821251;29;45456;-85
2022/10/14 01:43:37;;;;;;;;;3.00;2.75;;;;;16.73;100.00;100655.66;4822275;29;45698;-85
2022/10/14 01:46:05;;;;;;;;;3.25;3.00;;;;;16.71;100.00;100641.38;4820440;29;45553;-85
2022/10/14 01:48:35;;;;;;;;;4.67;4.67;;;;;16.75;100.00;100643.09;4820570;29;46845;-84
2022/10/14 01:51:07;;;;;;;;;2.75;2.75;;;;;16.74;100.00;100652.06;4817718;29;45819;-85
2022/10/14 01:53:39;;;;;;;;;3.00;3.00;;;;;16.73;100.00;100644.94;4804392;29;45901;-85
2022/10/14 01:56:06;;;;;;;;;4.75;4.75;;;;;16.71;100.00;100644.94;4802386;29;45517;-85
2022/10/14 01:58:33;;;;;;;;;4.00;4.00;;;;;16.75;100.00;100643.09;4801010;29;46932;-85
2022/10/14 02:01:02;;;;;;;;;4.50;4.00;;;;;16.73;100.00;100636.88;4800804;29;45417;-86
2022/10/14 02:03:38;;;;;;;;;4.67;4.00;;;;;16.73;100.00;100647.63;4802170;29;45335;-85
2022/10/14 02:06:09;;;;;;;;;3.75;3.75;;;;;16.69;100.00;100643.19;4817875;29;45422;-85
2022/10/14 02:09:12;;;;;;;;;5.00;3.00;;;;;16.76;100.00;100634.13;4816917;29;45340;-84
2022/10/14 02:11:45;;;;;;;;;5.00;5.00;;;;;16.73;100.00;100626.13;4817992;29;45134;-85
2022/10/14 02:14:17;;;;;;;;;4.00;4.00;;;;;16.75;100.00;100633.25;4817859;29;45621;-85
2022/10/14 02:17:08;;;;;;;;;5.00;3.00;;;;;16.73;100.00;100628.81;4818268;29;45502;-84
2022/10/14 02:19:55;;;;;;;;;3.00;3.00;;;;;16.72;100.00;100630.59;4779765;29;45398;-85
2022/10/14 02:22:35;;;;;;;;;4.00;4.00;;;;;16.73;100.00;100623.44;4779333;29;45419;-85
2022/10/14 02:25:10;;;;;;;;;2.75;2.00;;;;;16.65;100.00;100620.84;4779186;29;44906;-85
2022/10/14 02:27:38;;;;;;;;;4.00;4.00;;;;;16.70;100.00;100628.84;4779230;29;45514;-85
2022/10/14 02:30:06;;;;;;;;;3.25;3.25;;;;;16.71;100.00;100626.13;4779519;29;46917;-84
2022/10/14 02:32:32;;;;;;;;;3.00;3.00;;;;;16.77;100.00;100630.56;4779533;29;45427;-85
2022/10/14 02:34:59;;;;;;;;;3.33;3.33;;;;;16.80;100.00;100625.13;4779931;29;45511;-85
2022/10/14 02:37:27;;;;;;;;;4.00;4.00;;;;;16.86;100.00;100617.00;4780213;29;45347;-85
2022/10/14 02:40:01;;;;;;;;;3.00;3.00;;;;;16.88;100.00;100623.25;4779086;29;48114;-85
2022/10/14 02:42:27;;;;;;;;;2.00;2.00;;;;;16.85;100.00;100615.25;4778805;29;45526;-85
2022/10/14 02:44:57;;;;;;;;;3.67;3.67;;;;;16.91;100.00;100617.84;4765436;29;44793;-86
2022/10/14 02:47:23;;;;;;;;;4.25;2.50;;;;;16.95;100.00;100616.00;4779651;29;45625;-86
2022/10/14 02:49:49;;;;;;;;;3.00;3.00;;;;;16.93;100.00;100607.97;4779702;29;46381;-85
2022/10/14 02:52:15;;;;;;;;;2.00;2.00;;;;;16.90;100.00;100599.94;4765203;29;45938;-85
2022/10/14 02:54:40;;;;;;;;;3.67;3.67;;;;;16.96;100.00;100612.41;4779963;29;45458;-85
2022/10/14 02:57:06;;;;;;;;;3.00;2.67;;;;;16.86;100.00;100603.59;4796323;29;45992;-85
2022/10/14 02:59:32;;;;;;;;;3.00;3.00;;;;;16.96;100.00;100613.28;4818685;29;45166;-85
2022/10/14 03:01:57;;;;;;;;;3.00;3.00;;;;;16.96;100.00;100615.97;4786939;29;45373;-86
2022/10/14 03:04:23;;;;;;;;;3.50;3.50;;;;;16.99;100.00;100620.44;4818166;29;45424;-85
2022/10/14 03:06:48;;;;;;;;;2.75;2.75;;;;;16.99;100.00;100609.69;4801451;29;44816;-85
2022/10/14 03:09:13;;;;;;;;;2.50;2.50;;;;;16.94;100.00;100608.84;4801680;29;47110;-85
2022/10/14 03:11:39;;;;;;;;;3.00;3.00;;;;;16.93;100.00;100609.78;4800852;29;45384;-85
2022/10/14 03:14:04;;;;;;;;;3.00;3.00;;;;;16.93;100.00;100609.78;4811235;29;45426;-85
2022/10/14 03:16:29;;;;;;;;;5.00;5.00;;;;;16.93;100.00;100610.66;4837447;29;45359;-85
2022/10/14 03:18:55;;;;;;;;;2.00;2.00;;;;;16.96;100.00;100605.22;4837197;29;45710;-85
2022/10/14 03:21:20;;;;;;;;;4.00;4.00;;;;;16.95;100.00;100608.84;4836708;29;44732;-85
2022/10/14 03:23:46;;;;;;;;;2.00;2.00;;;;;16.95;100.00;100614.22;4837356;29;45239;-85
2022/10/14 03:26:11;;;;;;;;;4.00;3.00;;;;;16.95;100.00;100616.91;4836228;29;45470;-86
2022/10/14 03:28:37;;;;;;;;;5.25;3.50;;;;;16.86;100.00;100603.59;4834572;29;46711;-85
2022/10/14 03:31:02;;;;;;;;;3.50;3.25;;;;;16.91;100.00;100611.59;4833400;29;45348;-86
2022/10/14 03:33:28;;;;;;;;;2.00;2.00;;;;;16.91;100.00;100614.28;4834922;29;45453;-86
2022/10/14 03:35:53;;;;;;;;;5.75;4.00;;;;;16.87;100.00;100605.38;4833887;29;45511;-86
2022/10/14 03:41:40;;;;;;;;;3.00;3.00;;;;;16.88;100.00;100600.88;4835286;29;45364;-85
2022/10/14 03:44:06;;;;;;;;;3.00;3.00;;;;;16.85;100.00;100590.19;4835712;29;45353;-85
2022/10/14 03:46:32;;;;;;;;;3.00;2.00;;;;;16.90;100.00;100594.56;4835626;29;45379;-85
2022/10/14 03:48:57;;;;;;;;;1.50;1.50;;;;;16.85;100.00;100585.72;4834397;29;47440;-86
2022/10/14 03:51:23;;;;;;;;;4.25;3.00;;;;;16.86;100.00;100586.59;4833402;29;45887;-86
2022/10/14 03:53:48;;;;;;;;;2.00;2.00;;;;;16.91;100.00;100598.16;4834973;29;44787;-86
2022/10/14 03:56:14;;;;;;;;;2.00;2.00;;;;;16.88;100.00;100593.69;4838581;29;45503;-86
2022/10/14 03:58:39;;;;;;;;;2.00;2.00;;;;;16.90;100.00;100597.25;4832211;29;45555;-83
2022/10/14 04:01:04;;;;;;;;;2.00;2.00;;;;;16.90;100.00;100599.94;4834073;29;45488;-84
2022/10/14 04:03:30;;;;;;;;;1.00;1.00;;;;;16.84;100.00;100597.34;4831707;29;44755;-85
2022/10/14 04:05:55;;;;;;;;;2.00;2.00;;;;;16.79;100.00;100591.13;4832793;29;45523;-85
2022/10/14 04:08:21;;;;;;;;;1.50;1.50;;;;;16.82;100.00;100595.59;4832564;29;47521;-85
2022/10/14 04:10:51;;;;;;;;;2.00;2.00;;;;;16.83;100.00;100600.06;4833043;29;45479;-84
2022/10/14 04:13:17;;;;;;;;;1.00;1.00;;;;;16.76;100.00;100591.16;4832547;29;45449;-85
2022/10/14 04:15:42;;;;;;;;;1.75;1.75;;;;;16.77;100.00;100598.31;4833877;29;44937;-86
2022/10/14 04:18:08;;;;;;;;;1.00;1.00;;;;;16.76;100.00;100602.81;4834124;29;45985;-85
2022/10/14 04:20:33;;;;;;;;;3.00;3.00;;;;;16.74;100.00;100595.66;4833108;29;45836;-83
2022/10/14 04:22:59;;;;;;;;;1.00;1.00;;;;;16.68;100.00;100588.56;4834201;29;45329;-85
2022/10/14 04:25:25;;;;;;;;;1.00;1.00;;;;;16.67;100.00;100585.94;4843191;29;45554;-84
2022/10/14 04:27:51;;;;;;;;;2.75;2.00;;;;;16.68;100.00;100580.50;4835943;29;45400;-85
2022/10/14 04:30:16;;;;;;;;;2.00;2.00;;;;;16.66;100.00;100579.66;4834978;29;45334;-85
2022/10/14 04:32:42;;;;;;;;;2.00;2.00;;;;;16.70;100.00;100591.25;4835087;29;45330;-85
2022/10/14 04:35:08;;;;;;;;;3.00;1.25;;;;;16.67;100.00;100592.19;4836028;29;45253;-85
2022/10/14 04:37:34;;;;;;;;;2.00;2.00;;;;;16.70;100.00;100592.13;4838107;29;47242;-85
2022/10/14 04:39:59;;;;;;;;;1.00;1.00;;;;;16.62;100.00;100593.16;4834666;29;45790;-84
2022/10/14 04:42:24;;;;;;;;;1.75;1.75;;;;;16.65;100.00;100593.13;4833799;29;45404;-85
2022/10/14 04:44:50;;;;;;;;;3.00;3.00;;;;;16.68;100.00;100588.56;4843812;29;45422;-86
2022/10/14 04:47:15;;;;;;;;;3.00;3.00;;;;;16.65;100.00;100582.38;4833423;29;46649;-85
2022/10/14 04:49:40;;;;;;;;;4.75;3.25;;;;;16.64;100.00;100567.16;4833112;29;45402;-85
2022/10/14 04:52:06;;;;;;;;;2.50;2.50;;;;;16.64;100.00;100561.78;4834354;29;45421;-85
2022/10/14 04:54:31;;;;;;;;;5.00;5.00;;;;;16.67;100.00;100586.81;4833090;29;44758;-85
2022/10/14 04:56:57;;;;;;;;;3.00;3.00;;;;;16.64;100.00;100573.41;4844194;29;47043;-84
2022/10/14 04:59:22;;;;;;;;;2.75;2.75;;;;;16.63;100.00;100571.66;4834409;29;45465;-85
2022/10/14 05:01:48;;;;;;;;;4.00;4.00;;;;;16.66;100.00;100578.78;4837178;29;45455;-85
2022/10/14 05:04:20;;;;;;;;;2.00;2.00;;;;;16.72;100.00;100584.06;4836872;29;45705;-85
2022/10/14 05:06:45;;;;;;;;;3.00;3.00;;;;;16.73;100.00;100580.47;4836726;29;46681;-84
2022/10/14 05:09:11;;;;;;;;;3.00;2.00;;;;;16.69;100.00;100578.75;4848240;29;44753;-85
2022/10/14 05:11:36;;;;;;;;;4.25;3.00;;;;;16.69;100.00;100574.25;4826918;29;45338;-85
2022/10/14 05:14:01;;;;;;;;;3.50;3.50;;;;;16.74;100.00;100583.16;4814930;29;45472;-85
2022/10/14 05:16:27;;;;;;;;;4.00;4.00;;;;;16.69;100.00;100568.88;4813798;29;47119;-85
2022/10/14 05:18:52;;;;;;;;;5.00;3.00;;;;;16.67;100.00;100565.34;4816157;29;45823;-85
2022/10/14 05:21:18;;;;;;;;;3.67;3.67;;;;;16.72;100.00;100574.19;4816013;29;44834;-84
2022/10/14 05:23:44;;;;;;;;;4.50;4.50;;;;;16.76;100.00;100575.97;4829565;29;45441;-85
2022/10/14 05:26:09;;;;;;;;;5.00;3.33;;;;;16.79;100.00;100570.53;4819573;29;45080;-85
2022/10/14 05:28:37;;;;;;;;;3.75;3.00;;;;;16.75;100.00;100567.91;4817749;29;45461;-84
2022/10/14 05:31:03;;;;;;;;;4.00;4.00;;;;;16.79;100.00;100570.53;4804469;29;45320;-84
2022/10/14 05:33:29;;;;;;;;;0.00;0.00;;;;;16.78;100.00;100565.16;4836963;29;45298;-87
2022/10/14 05:35:54;;;;;;;;;3.00;3.00;;;;;16.82;100.00;100566.94;4805308;29;47237;-88
2022/10/14 05:38:19;;;;;;;;;4.50;4.50;;;;;16.80;100.00;100563.34;4839148;29;44831;-87
2022/10/14 05:40:56;;;;;;;;;6.00;5.00;;;;;16.75;100.00;100562.53;4823396;29;45214;-88
2022/10/14 05:43:23;;;;;;;;;5.00;4.00;;;;;16.74;100.00;100566.13;4804993;29;45362;-88
2022/10/14 05:45:50;;;;;;;;;4.00;4.00;;;;;16.74;100.00;100566.13;4819764;29;47547;-87
2022/10/14 05:48:16;;;;;;;;;5.00;5.00;;;;;16.72;100.00;100562.56;4851899;29;45342;-88
2022/10/14 05:50:42;;;;;;;;;5.00;3.75;;;;;16.68;100.00;100563.53;4804916;29;45457;-87
2022/10/14 05:53:08;;;;;;;;;4.00;4.00;;;;;16.68;100.00;100569.78;4820495;29;45771;-84
2022/10/14 05:55:33;;;;;;;;;5.33;4.67;;;;;16.66;100.00;100565.34;4790208;29;46718;-84
2022/10/14 05:57:59;;;;;;;;;6.00;6.00;;;;;16.59;100.00;100546.63;4821378;29;45358;-84
2022/10/14 06:00:24;;;;;;;;;6.67;4.67;;;;;16.69;100.00;100574.25;4820498;29;44773;-85
2022/10/14 06:02:50;;;;;;;;;4.00;4.00;;;;;16.66;100.00;100558.16;4805283;29;45446;-85
2022/10/14 06:05:16;;;;;;;;;5.00;5.00;;;;;16.73;100.00;100567.94;4805554;29;48358;-85
2022/10/14 06:07:41;;;;;;;;;5.00;5.00;;;;;16.75;100.00;100573.28;4806334;29;45230;-85
2022/10/14 06:10:09;;;;;;;;;7.33;7.00;;;;;16.73;100.00;100567.94;4813470;29;45249;-85
2022/10/14 06:12:35;;;;;;;;;6.33;6.33;;;;;16.78;100.00;100573.22;4815577;29;44853;-84
2022/10/14 06:15:00;;;;;;;;;5.00;5.00;;;;;16.75;100.00;100567.91;4803969;29;46977;-84
2022/10/14 06:17:25;;;;;;;;;6.75;6.75;;;;;16.76;100.00;100567.91;4819924;29;45397;-85
2022/10/14 06:19:51;;;;;;;;;7.00;7.00;;;;;16.77;100.00;100566.97;4819684;29;45427;-82
2022/10/14 06:22:16;;;;;;;;;8.00;8.00;;;;;16.72;100.00;100573.31;4805112;29;45499;-85
2022/10/14 06:24:42;;;;;;;;;8.00;8.00;;;;;16.78;100.00;100583.97;4815716;29;47254;-85
2022/10/14 06:27:07;;;;;;;;;8.67;8.00;;;;;16.80;100.00;100577.69;4804196;29;45593;-85
2022/10/14 06:29:36;;;;;;;;;8.33;8.33;;;;;16.80;100.00;100569.63;4819910;29;44827;-85
2022/10/14 06:32:10;;;;;;;;;9.00;8.00;;;;;16.84;100.00;100572.28;4818322;29;45616;-84
2022/10/14 06:34:35;;;;;;;;;5.00;5.00;;;;;16.79;100.00;100569.66;4802470;29;48449;-82
2022/10/14 06:37:02;;;;;;;;;9.00;9.00;;;;;16.78;100.00;100568.75;4818872;29;45398;-81
2022/10/14 06:39:30;;;;;;;;;8.75;7.00;;;;;16.86;100.00;100576.72;4803503;29;45505;-84
2022/10/14 06:41:56;;;;;;;;;5.75;5.75;;;;;16.88;100.00;100574.91;4831010;29;45536;-82
2022/10/14 06:44:21;;;;;;;;;6.67;6.67;;;;;16.86;100.00;100576.72;4817367;29;45488;-83
2022/10/14 06:46:47;;;;;;;;;6.00;6.00;;;;;16.90;100.00;100573.06;4816946;29;45378;-83
2022/10/14 06:49:13;;;;;;;;;7.33;5.67;;;;;16.96;100.00;100585.53;4832732;29;45324;-84
2022/10/14 06:51:39;;;;;;;;;8.00;8.00;;;;;16.97;100.00;100582.84;4818282;29;45422;-84
2022/10/14 06:54:05;;;;;;;;;5.00;5.00;;;;;16.97;100.00;100573.91;4804463;29;46714;-83
2022/10/14 06:56:31;;;;;;;;;6.00;6.00;;;;;17.00;100.00;100580.09;4818531;29;44823;-83
2022/10/14 06:58:56;;;;;;;;;7.00;7.00;;;;;17.01;100.00;100589.06;4819772;29;44749;-83
2022/10/14 07:01:22;;;;;;;;;6.00;6.00;;;;;17.02;100.00;100582.75;4808091;29;45310;-83
2022/10/14 07:03:48;;;;;;;;;5.67;5.67;;;;;17.03;100.00;100586.31;4819414;29;45484;-83
2022/10/14 07:06:16;;;;;;;;;3.00;3.00;;;;;16.99;100.00;100589.06;4818947;29;44853;-83
2022/10/14 07:08:42;;;;;;;;;4.25;4.00;;;;;17.08;100.00;100593.41;4820130;29;45430;-82
2022/10/14 07:11:09;;;;;;;;;3.75;3.75;;;;;17.07;100.00;100596.16;4821188;29;45728;-83
2022/10/14 07:16:57;;;;;;;;;5.00;3.50;;;;;17.08;100.00;100598.78;4819335;29;45380;-82
2022/10/14 07:19:22;;;;;;;;;2.25;2.25;;;;;17.04;100.00;100597.06;4827523;29;45150;-83
2022/10/14 07:21:49;;;;;;;;;2.50;2.50;;;;;17.08;100.00;100608.66;4847923;29;44898;-83
2022/10/14 07:24:15;;;;;;;;;1.00;1.00;;;;;17.04;100.00;100601.56;4835840;29;45543;-83
2022/10/14 07:26:42;;;;;;;;;1.00;1.00;;;;;17.06;100.00;100610.47;4836854;29;45401;-82
2022/10/14 07:29:08;;;;;;;;;3.75;2.25;;;;;17.06;100.00;100608.66;4822011;29;45362;-83
2022/10/14 07:31:34;;;;;;;;;2.00;2.00;;;;;17.00;100.00;100596.22;4836128;29;45430;-83
2022/10/14 07:34:00;;;;;;;;;2.00;2.00;;;;;17.05;100.00;100600.63;4851775;29;47086;-83
2022/10/14 07:36:26;;;;;;;;;3.75;3.75;;;;;17.06;100.00;100602.41;4842881;29;45496;-83
2022/10/14 07:38:54;;;;;;;;;2.00;2.00;;;;;17.17;100.00;100619.28;4837370;29;45454;-84
2022/10/14 07:41:22;;;;;;;;;3.25;3.00;;;;;17.22;100.00;100617.41;4838076;29;44883;-84
2022/10/14 07:44:00;;;;;;;;;3.00;3.00;;;;;17.18;100.00;100602.22;4838287;29;45305;-84
2022/10/14 07:46:31;;;;;;;;;1.25;1.25;;;;;17.23;100.00;100611.13;4843322;29;45426;-83
2022/10/14 07:49:03;;;;;;;;;1.25;1.25;;;;;17.30;100.00;100623.53;4838368;29;44913;-84
2022/10/14 07:55:00;;;;;;;;;4.50;3.00;;;;;17.35;100.00;100612.69;4842564;29;44897;-84
2022/10/14 07:57:30;;;;;;;;;2.75;2.00;;;;;17.27;100.00;100610.16;4845001;29;44857;-83
2022/10/14 07:59:58;;;;;;;;;3.00;1.75;;;;;17.38;100.00;100624.31;4839320;29;45516;-84
2022/10/14 08:02:27;;;;;;;;;1.75;1.75;;;;;17.48;100.00;100645.69;4825891;29;45387;-82
2022/10/14 08:05:00;;;;;;;;;1.75;1.75;;;;;17.31;100.00;100617.25;4824262;29;46855;-83
2022/10/14 08:07:32;;;;;;;;;2.00;2.00;;;;;17.46;100.00;100655.56;4823661;29;45510;-85
2022/10/14 08:09:57;;;;;;;;;2.00;2.00;;;;;17.35;100.00;100627.06;4841025;29;45406;-84
2022/10/14 08:12:23;;;;;;;;;2.00;1.00;;;;;17.42;100.00;100643.09;4841100;29;45741;-84
2022/10/14 08:15:04;;;;;;;;;2.25;2.25;;;;;17.32;100.00;100640.53;4838748;29;45503;-84
2022/10/14 08:17:43;;;;;;;;;2.50;2.50;;;;;17.23;100.00;100616.50;4838418;29;45173;-86
2022/10/14 08:20:09;;;;;;;;;34.33;29.67;;;;;17.16;100.00;100604.06;4844211;29;45291;-84
2022/10/14 08:22:38;;;;;;;;;8.75;8.75;;;;;17.13;100.00;100588.88;4839160;29;45465;-85
2022/10/14 08:25:27;;;;;;;;;2.50;2.50;;;;;17.47;100.00;100649.25;4839758;29;47333;-86
2022/10/14 08:27:56;;;;;;;;;1.75;1.75;;;;;17.38;100.00;100637.75;4840293;29;45913;-84
2022/10/14 08:30:27;;;;;;;;;1.67;1.67;;;;;17.47;100.00;100654.63;4841107;29;45437;-84
2022/10/14 08:32:54;;;;;;;;;2.00;2.00;;;;;17.42;100.00;100651.16;4854726;29;45495;-84
2022/10/14 08:35:19;;;;;;;;;1.50;1.25;;;;;17.26;100.00;100624.50;4837801;29;45302;-85
2022/10/14 08:37:55;;;;;;;;;2.00;2.00;;;;;17.38;100.00;100637.75;4839816;29;44792;-85
2022/10/14 08:40:21;;;;;;;;;2.25;2.25;;;;;17.49;100.00;100648.34;4838570;29;44875;-85
2022/10/14 08:43:28;;;;;;;;;2.00;2.00;;;;;17.45;100.00;100641.25;4843675;29;44809;-85
2022/10/14 08:46:17;;;;;;;;;2.00;1.00;;;;;17.54;100.00;100650.97;4839651;29;45445;-85
2022/10/14 08:48:45;;;;;;;;;4.00;2.00;;;;;17.55;100.00;100633.91;4838536;29;45365;-85
2022/10/14 08:51:18;;;;;;;;;4.75;4.75;;;;;17.49;100.00;100631.31;4825032;29;45084;-85
2022/10/14 08:53:52;;;;;;;;;2.75;2.75;;;;;17.60;100.00;100640.09;4838581;29;45451;-85
2022/10/14 08:56:19;;;;;;;;;2.00;1.00;;;;;17.76;100.00;100659.56;4838288;29;47617;-84
2022/10/14 08:58:55;;;;;;;;;3.00;3.00;;;;;17.78;100.00;100647.84;4837818;29;45388;-83
2022/10/14 09:01:26;;;;;;;;;1.25;1.00;;;;;17.84;100.00;100651.41;4822119;29;45539;-85
2022/10/14 09:03:57;;;;;;;;;3.00;2.00;;;;;17.90;100.00;100651.28;4854213;29;45503;-85
2022/10/14 09:06:29;;;;;;;;;3.25;3.25;;;;;17.97;100.00;100650.25;4843278;29;45356;-86
2022/10/14 09:09:11;;;;;;;;;5.00;4.00;;;;;17.97;100.00;100637.69;4834501;29;45374;-86
2022/10/14 09:11:44;;;;;;;;;3.75;2.50;;;;;18.03;100.00;100634.00;4820175;29;45339;-86
2022/10/14 09:14:20;;;;;;;;;3.00;3.00;;;;;18.04;100.00;100637.56;4823325;29;45361;-86
2022/10/14 09:17:07;;;;;;;;;7.00;5.00;;;;;18.05;100.00;100629.47;4827046;29;45409;-86
2022/10/14 09:20:03;;;;;;;;;4.00;4.00;;;;;17.99;100.00;100602.69;4824527;29;44960;-87
2022/10/14 09:22:30;;;;;;;;;7.00;7.00;;;;;18.08;100.00;100615.09;4842049;29;45379;-86
2022/10/14 09:24:57;;;;;;;;;4.00;4.00;;;;;18.03;100.00;100611.59;4840837;29;44925;-86
2022/10/14 09:27:28;;;;;;;;;6.00;3.00;;;;;17.99;100.00;100594.59;4842446;29;46796;-86
2022/10/14 09:29:58;;;;;;;;;4.75;4.75;;;;;18.16;100.00;100624.78;4843622;29;45367;-87
2022/10/14 09:32:34;;;;;;;;;3.75;3.75;;;;;18.11;100.00;100609.63;4840988;29;44727;-86
2022/10/14 09:35:12;;;;;;;;;3.50;3.50;;;;;18.10;100.00;100606.06;4841722;29;45670;-85
2022/10/14 09:37:38;;;;;;;;;3.25;3.25;;;;;18.10;100.00;100613.25;4825796;29;47663;-84
2022/10/14 09:40:30;;;;;;;;;3.00;1.25;;;;;18.06;100.00;100607.03;4823248;29;45503;-83
2022/10/14 09:43:15;;;;;;;;;2.00;2.00;;;;;18.15;100.00;100611.34;4849650;29;45522;-81
2022/10/14 09:45:46;;;;;;;;;2.00;2.00;;;;;18.16;100.00;100608.63;4841952;29;45085;-83
2022/10/14 09:48:23;;;;;;;;;7.33;7.33;;;;;18.23;100.00;100616.59;4841331;29;45368;-83
2022/10/14 09:50:53;;;;;;;;;3.50;3.50;;;;;18.30;100.00;100610.16;4854013;29;45399;-84
2022/10/14 09:53:29;;;;;;;;;4.00;4.00;;;;;18.30;100.00;100610.16;4839419;29;44970;-84
2022/10/14 09:55:57;;;;;;;;;3.75;3.75;;;;;18.25;100.00;100607.56;4837564;29;45400;-84
2022/10/14 09:58:31;;;;;;;;;3.75;3.75;;;;;18.25;100.00;100606.69;4823435;29;45347;-82
2022/10/14 10:01:00;;;;;;;;;12.33;10.33;;;;;18.24;100.00;100618.34;4822963;29;45490;-84
2022/10/14 10:03:31;;;;;;;;;26.33;22.00;;;;;18.33;100.00;100620.88;4838609;29;45451;-84
2022/10/14 10:06:05;;;;;;;;;13.67;12.00;;;;;18.42;100.00;100615.31;4831812;29;44820;-85
2022/10/14 10:08:31;;;;;;;;;9.25;9.25;;;;;18.48;100.00;100620.56;4835040;29;47767;-85
2022/10/14 10:11:10;;;;;;;;;5.00;5.00;;;;;18.50;100.00;100617.81;4824321;29;44862;-85
2022/10/14 10:13:57;;;;;;;;;5.00;5.00;;;;;18.55;100.00;100616.81;4820756;29;45435;-85
2022/10/14 10:16:30;;;;;;;;;8.00;8.00;;;;;18.62;100.00;100598.72;4829001;29;45552;-84
2022/10/14 10:19:00;;;;;;;;;4.75;4.75;;;;;18.55;100.00;100589.88;4839791;29;46884;-83
2022/10/14 10:21:29;;;;;;;;;4.00;4.00;;;;;18.69;100.00;100607.56;4840174;29;45777;-84
2022/10/14 10:24:00;;;;;;;;;4.00;4.00;;;;;18.65;100.00;100585.19;4845703;29;45412;-84
2022/10/14 10:26:32;;;;;;;;;3.00;3.00;;;;;18.84;100.00;100601.88;4843987;29;45421;-83
2022/10/14 10:29:03;;;;;;;;;4.25;3.00;;;;;18.98;100.00;100588.97;4841231;29;45398;-82
2022/10/14 10:32:08;;;;;;;;;3.50;3.50;;;;;19.13;100.00;100597.63;4839815;29;45527;-84
2022/10/14 10:34:55;;;;;;;;;4.00;4.00;;;;;19.27;100.00;100594.59;4837430;29;44727;-83
2022/10/14 10:37:29;;;;;;;;;3.25;3.25;;;;;19.35;100.00;100588.09;4838807;29;45422;-83
2022/10/14 10:40:35;;;;;;;;;1.00;1.00;;;;;19.36;100.00;100584.47;4841022;29;45180;-83
2022/10/14 10:43:20;;;;;;;;;1.50;1.50;;;;;19.21;100.00;100560.59;4835875;29;45371;-83
2022/10/14 10:46:23;;;;;;;;;1.25;1.25;;;;;19.32;100.00;100579.19;4805979;29;44805;-84
2022/10/14 10:49:01;;;;;;;;;2.00;2.00;;;;;19.41;100.00;100569.97;4837061;29;45295;-84
2022/10/14 10:55:31;;;;;;;;;3.00;3.00;;;;;19.71;100.00;100558.47;4823182;29;44800;-83
2022/10/14 10:58:12;;;;;;;;;3.00;3.00;;;;;19.78;100.00;100551.94;4829330;29;45342;-84
2022/10/14 11:01:00;;;;;;;;;1.00;1.00;;;;;19.72;100.00;100541.31;4840350;29;45455;-85
2022/10/14 11:04:03;;;;;;;;;1.00;1.00;;;;;19.66;100.00;100548.66;4851914;29;45451;-84
2022/10/14 11:13:05;;;;;;;;;1.50;1.50;;;;;19.47;100.00;100543.75;4804476;29;45198;-83
2022/10/14 11:16:00;;;;;;;;;1.75;1.75;;;;;19.39;100.00;100546.66;4802222;29;45594;-84
2022/10/14 11:18:45;;;;;;;;;1.00;1.00;;;;;19.29;100.00;100536.13;4782439;29;45295;-84
2022/10/14 11:21:35;;;;;;;;;1.00;1.00;;;;;19.28;100.00;100529.84;4783413;29;44827;-84
2022/10/14 11:24:18;;;;;;;;;2.50;2.00;;;;;19.32;100.00;100515.34;4769103;29;44820;-84
2022/10/14 11:27:29;;;;;;;;;1.50;1.50;;;;;19.43;100.00;100519.59;4785068;29;46437;-81
2022/10/14 11:30:22;;;;;;;;;1.75;1.75;;;;;19.42;100.00;100518.72;4773205;29;45597;-84
2022/10/14 11:33:15;;;;;;;;;1.00;1.00;;;;;19.33;100.00;100514.44;4784036;29;45559;-86
2022/10/14 11:35:59;;;;;;;;;4.00;4.00;;;;;19.20;100.00;100507.59;4781020;29;45396;-86
2022/10/14 11:38:40;;;;;;;;;5.00;5.00;;;;;19.11;100.00;100497.06;4771029;29;48131;-83
2022/10/14 11:41:35;;;;;;;;;6.75;6.75;;;;;19.07;100.00;100495.34;4770306;29;45760;-83
2022/10/14 11:44:14;;;;;;;;;4.75;4.75;;;;;19.02;100.00;100491.88;4775183;29;44879;-83
2022/10/14 11:46:49;;;;;;;;;9.75;7.75;;;;;18.95;100.00;100483.94;4786786;29;45613;-83
2022/10/14 11:49:21;;;;;;;;;3.75;3.75;;;;;18.88;100.00;100481.44;4786536;29;46973;-84
2022/10/14 11:52:06;;;;;;;;;3.00;3.00;;;;;18.77;100.00;100465.50;4801261;29;45538;-84
2022/10/14 11:54:49;;;;;;;;;4.00;3.00;;;;;18.76;100.00;100474.50;4806387;29;45565;-85
2022/10/14 11:57:53;;;;;;;;;2.50;2.50;;;;;18.74;100.00;100473.63;4806742;29;45556;-83